Time;durP1;ratioP1;P1;durP2;ratioP2;P2;SDS_P1;SDS_P2;PMS_P1;PMS_P2;Temp;Humidity;BMP_temperature;BMP_pressure;BME280_temperature;BME280_humidity;BME280_pressure;Samples;Min_cycle;Max_cycle;Signal;HPM_P1;HPM_P2
2024/02/11 00:00:30;;;;;;;23.20;18.20;;;;;;;10.63;100.00;95392.88;4073264;29;20676;-87
2024/02/11 00:02:37;;;;;;;23.00;16.87;;;;;;;10.63;100.00;95396.31;4061854;29;20623;-87
2024/02/11 00:04:42;;;;;;;19.27;15.73;;;;;;;10.66;100.00;95408.16;4080450;29;20666;-87
2024/02/11 00:06:46;;;;;;;22.30;16.70;;;;;;;10.67;100.00;95404.59;4076974;29;20670;-87
2024/02/11 00:08:49;;;;;;;22.17;17.90;;;;;;;10.71;100.00;95418.91;4074533;29;21451;-87
2024/02/11 00:10:54;;;;;;;26.33;18.43;;;;;;;10.71;100.00;95426.75;4074933;29;21211;-87
2024/02/11 00:13:01;;;;;;;23.73;17.97;;;;;;;10.72;100.00;95423.13;4063993;29;20634;-88
2024/02/11 00:15:08;;;;;;;26.37;18.90;;;;;;;10.74;100.00;95424.59;4079535;29;20745;-87
2024/02/11 00:17:10;;;;;;;24.67;17.87;;;;;;;10.75;100.00;95422.78;4062684;29;20635;-88
2024/02/11 00:19:14;;;;;;;27.90;17.70;;;;;;;10.75;100.00;95426.22;4081609;29;20626;-87
2024/02/11 00:21:16;;;;;;;26.93;19.50;;;;;;;10.75;100.00;95425.41;4065984;29;20619;-87
2024/02/11 00:23:22;;;;;;;27.30;19.50;;;;;;;10.77;100.00;95426.06;4074977;29;20646;-87
2024/02/11 00:25:25;;;;;;;29.43;20.87;;;;;;;10.78;100.00;95427.66;4079740;29;20642;-87
2024/02/11 00:27:27;;;;;;;28.73;20.10;;;;;;;10.79;100.00;95427.50;4077840;29;20676;-87
2024/02/11 00:29:33;;;;;;;28.10;20.63;;;;;;;10.82;100.00;95432.34;4071105;29;20646;-87
2024/02/11 00:31:38;;;;;;;27.10;19.93;;;;;;;10.83;100.00;95439.22;4066372;29;20728;-87
2024/02/11 00:33:41;;;;;;;29.77;21.20;;;;;;;10.85;100.00;95439.84;4075123;29;20630;-88
2024/02/11 00:35:45;;;;;;;31.50;20.63;;;;;;;10.86;100.00;95437.06;4061719;29;20633;-87
2024/02/11 00:37:48;;;;;;;31.60;22.83;;;;;;;10.88;100.00;95437.72;4075744;29;20649;-87
2024/02/11 00:39:51;;;;;;;34.43;22.57;;;;;;;10.90;100.00;95438.34;4064700;29;20627;-87
2024/02/11 00:41:55;;;;;;;31.33;21.03;;;;;;;10.92;100.00;95435.56;4064109;29;20679;-86
2024/02/11 00:43:58;;;;;;;32.77;21.70;;;;;;;10.92;100.00;95433.78;4065891;29;20737;-87
2024/02/11 00:46:02;;;;;;;27.57;20.87;;;;;;;10.92;100.00;95441.59;4067328;29;20678;-86
2024/02/11 00:48:07;;;;;;;27.30;20.10;;;;;;;10.92;100.00;95430.34;4078477;29;20644;-87
2024/02/11 00:50:13;;;;;;;27.20;20.00;;;;;;;10.93;100.00;95443.22;4074884;29;20637;-87
2024/02/11 00:52:17;;;;;;;23.07;19.10;;;;;;;10.93;100.00;95435.41;4090791;29;20633;-87
2024/02/11 00:54:20;;;;;;;25.53;19.70;;;;;;;10.93;100.00;95443.22;4077158;29;20644;-87
2024/02/11 00:56:24;;;;;;;29.23;19.93;;;;;;;10.91;100.00;95442.56;4060937;29;21055;-88
2024/02/11 00:58:27;;;;;;;27.60;20.90;;;;;;;10.91;100.00;95445.16;4077295;29;20649;-87
2024/02/11 01:00:30;;;;;;;27.43;20.97;;;;;;;10.91;100.00;95447.78;4063502;29;20662;-88
2024/02/11 01:02:35;;;;;;;32.67;22.17;;;;;;;10.93;100.00;95452.81;4086952;29;20652;-87
2024/02/11 01:04:39;;;;;;;32.73;21.03;;;;;;;10.93;100.00;95458.03;4077364;29;20673;-88
2024/02/11 01:06:43;;;;;;;30.27;20.70;;;;;;;10.94;100.00;95457.06;4070663;29;20681;-88
2024/02/11 01:08:46;;;;;;;30.90;22.00;;;;;;;10.95;100.00;95456.09;4072847;29;20642;-88
2024/02/11 01:10:48;;;;;;;30.63;21.67;;;;;;;10.96;100.00;95460.31;4059664;29;20638;-88
2024/02/11 01:12:52;;;;;;;27.73;20.80;;;;;;;10.96;100.00;95461.13;4059894;29;20874;-88
2024/02/11 01:14:56;;;;;;;31.83;21.90;;;;;;;10.98;100.00;95458.34;4063822;29;20639;-88
2024/02/11 01:16:59;;;;;;;31.27;21.60;;;;;;;11.01;100.00;95468.44;4076150;29;20832;-88
2024/02/11 01:19:04;;;;;;;28.17;21.97;;;;;;;11.02;100.00;95468.28;4064746;29;20734;-88
2024/02/11 01:21:09;;;;;;;29.00;21.80;;;;;;;11.03;100.00;95476.91;4063772;29;20642;-87
2024/02/11 01:23:13;;;;;;;31.67;21.90;;;;;;;11.05;100.00;95478.38;4062544;29;21232;-88
2024/02/11 01:25:19;;;;;;;26.80;20.93;;;;;;;11.06;100.00;95479.97;4079110;29;21026;-87
2024/02/11 01:27:22;;;;;;;29.53;20.80;;;;;;;11.07;100.00;95473.78;4076547;29;20638;-87
2024/02/11 01:29:25;;;;;;;30.97;21.90;;;;;;;11.07;100.00;95484.22;4065599;29;21197;-88
2024/02/11 01:31:28;;;;;;;27.73;21.40;;;;;;;11.07;100.00;95481.59;4075910;29;22214;-87
2024/02/11 01:33:31;;;;;;;33.20;22.23;;;;;;;11.06;100.00;95479.97;4089702;29;20732;-86
2024/02/11 01:35:35;;;;;;;27.23;20.77;;;;;;;11.05;100.00;95483.59;4057709;29;20632;-88
2024/02/11 01:37:40;;;;;;;29.83;22.47;;;;;;;11.05;100.00;95488.81;4073145;29;20640;-88
2024/02/11 01:39:44;;;;;;;31.87;22.30;;;;;;;11.07;100.00;95492.03;4077193;29;20839;-87
2024/02/11 01:41:47;;;;;;;29.10;20.50;;;;;;;11.10;100.00;95496.13;4078885;29;20729;-88
2024/02/11 01:43:50;;;;;;;26.73;19.97;;;;;;;11.13;100.00;95491.34;4063903;29;20705;-87
2024/02/11 01:45:54;;;;;;;28.80;20.77;;;;;;;11.14;100.00;95493.00;4073638;29;20667;-88
2024/02/11 01:47:57;;;;;;;30.37;21.03;;;;;;;11.17;100.00;95495.25;4053637;29;20643;-88
2024/02/11 01:50:00;;;;;;;27.00;20.00;;;;;;;11.18;100.00;95494.25;4080191;29;21250;-87
2024/02/11 01:52:06;;;;;;;24.43;19.80;;;;;;;11.21;100.00;95490.50;4059983;29;20675;-87
2024/02/11 01:54:11;;;;;;;24.93;19.30;;;;;;;11.21;100.00;95488.69;4076076;29;20630;-88
2024/02/11 01:56:14;;;;;;;28.17;20.70;;;;;;;11.22;100.00;95500.75;4063364;29;20660;-88
2024/02/11 01:58:18;;;;;;;27.90;21.90;;;;;;;11.24;100.00;95484.94;4078859;29;21418;-87
2024/02/11 02:00:21;;;;;;;27.53;20.40;;;;;;;11.22;100.00;95492.13;4079312;29;20633;-87
2024/02/11 02:02:27;;;;;;;28.33;20.03;;;;;;;11.17;100.00;95492.66;4063115;29;20707;-87
2024/02/11 02:04:31;;;;;;;27.40;21.03;;;;;;;11.16;100.00;95483.19;4073624;29;20714;-88
2024/02/11 02:06:36;;;;;;;26.67;20.30;;;;;;;11.19;100.00;95484.66;4070952;29;20713;-87
2024/02/11 02:08:41;;;;;;;30.50;21.10;;;;;;;11.18;100.00;95494.25;4078469;29;21283;-88
2024/02/11 02:10:45;;;;;;;27.37;20.13;;;;;;;11.18;100.00;95499.47;4078246;29;20633;-87
2024/02/11 02:12:49;;;;;;;26.67;19.70;;;;;;;11.18;100.00;95499.47;4061562;29;20635;-87
2024/02/11 02:14:53;;;;;;;28.37;20.83;;;;;;;11.18;100.00;95496.84;4076817;29;20615;-87
2024/02/11 02:16:57;;;;;;;25.27;19.40;;;;;;;11.18;100.00;95499.47;4054761;29;20646;-87
2024/02/11 02:19:03;;;;;;;26.37;19.63;;;;;;;11.17;100.00;95495.25;4062716;29;20635;-88
2024/02/11 02:21:06;;;;;;;23.67;18.70;;;;;;;11.20;100.00;95494.09;4064713;29;20623;-87
2024/02/11 02:23:12;;;;;;;27.30;19.30;;;;;;;11.23;100.00;95499.78;4071769;29;20638;-87
2024/02/11 02:25:16;;;;;;;26.83;19.80;;;;;;;11.25;100.00;95491.78;4061480;29;20778;-87
2024/02/11 02:27:20;;;;;;;25.43;19.50;;;;;;;11.28;100.00;95500.06;4068326;29;20659;-87
2024/02/11 02:29:23;;;;;;;24.33;18.80;;;;;;;11.28;100.00;95497.47;4061960;29;20643;-88
2024/02/11 02:31:27;;;;;;;26.17;19.83;;;;;;;11.30;100.00;95492.88;4060175;29;21089;-88
2024/02/11 02:33:31;;;;;;;24.40;18.90;;;;;;;11.31;100.00;95499.72;4076273;29;20626;-87
2024/02/11 02:35:36;;;;;;;26.47;19.43;;;;;;;11.30;100.00;95498.09;4073765;29;20722;-88
2024/02/11 02:37:40;;;;;;;24.03;18.60;;;;;;;11.32;100.00;95496.94;4056880;29;21181;-87
2024/02/11 02:39:46;;;;;;;23.63;17.37;;;;;;;11.32;100.00;95507.38;4060574;29;20631;-87
2024/02/11 02:41:50;;;;;;;23.67;19.27;;;;;;;11.33;100.00;95495.94;4073585;29;20662;-87
2024/02/11 02:43:53;;;;;;;24.80;19.30;;;;;;;11.34;100.00;95502.00;4059512;29;21098;-87
2024/02/11 02:45:58;;;;;;;24.83;18.67;;;;;;;11.35;100.00;95501.00;4063210;29;20647;-87
2024/02/11 02:48:02;;;;;;;25.37;18.37;;;;;;;11.35;100.00;95503.59;4082711;28;20642;-88
2024/02/11 02:50:07;;;;;;;24.37;18.50;;;;;;;11.35;100.00;95504.44;4072082;29;20638;-88
2024/02/11 02:52:12;;;;;;;25.63;19.00;;;;;;;11.36;100.00;95503.44;4063277;29;20758;-87
2024/02/11 02:54:16;;;;;;;24.00;19.23;;;;;;;11.38;100.00;95509.31;4078560;29;20673;-88
2024/02/11 02:56:23;;;;;;;25.20;18.17;;;;;;;11.38;100.00;95511.09;4073025;29;21051;-88
2024/02/11 02:58:26;;;;;;;27.07;18.13;;;;;;;11.38;100.00;95505.88;4084420;28;20680;-87
2024/02/11 03:00:34;;;;;;;24.30;18.50;;;;;;;11.37;100.00;95504.25;4075145;29;21007;-87
2024/02/11 03:02:39;;;;;;;25.17;18.37;;;;;;;11.35;100.00;95507.03;4087328;28;21079;-87
2024/02/11 03:04:45;;;;;;;23.17;17.80;;;;;;;11.34;100.00;95505.41;4078672;29;20664;-86
2024/02/11 03:06:48;;;;;;;25.93;20.30;;;;;;;11.33;100.00;95508.19;4062177;29;20690;-87
2024/02/11 03:08:52;;;;;;;28.40;19.80;;;;;;;11.30;100.00;95498.91;4073788;29;20841;-88
2024/02/11 03:10:56;;;;;;;29.73;19.53;;;;;;;11.30;100.00;95511.13;4072944;29;20644;-87
2024/02/11 03:13:01;;;;;;;27.07;19.40;;;;;;;11.28;100.00;95515.72;4074553;29;20711;-87
2024/02/11 03:15:07;;;;;;;25.87;19.43;;;;;;;11.29;100.00;95526.00;4064409;29;20681;-88
2024/02/11 03:17:11;;;;;;;20.17;15.60;;;;;;;11.30;100.00;95529.41;4076740;29;20685;-87
2024/02/11 03:19:14;;;;;;;18.60;13.07;;;;;;;11.12;100.00;95533.25;4074047;29;20646;-87
2024/02/11 03:21:20;;;;;;;16.47;11.40;;;;;;;11.03;100.00;95542.91;4078938;29;20634;-84
2024/02/11 03:23:24;;;;;;;13.90;10.20;;;;;;;11.03;100.00;95549.94;4078290;29;20736;-87
2024/02/11 03:25:28;;;;;;;9.97;7.93;;;;;;;10.95;100.00;95547.34;4087429;29;20740;-86
2024/02/11 03:27:34;;;;;;;3.40;2.10;;;;;;;10.80;100.00;95541.22;4069323;29;20654;-83
2024/02/11 03:29:39;;;;;;;2.30;1.70;;;;;;;10.67;100.00;95550.56;4075859;29;20629;-83
2024/02/11 03:31:43;;;;;;;2.20;1.20;;;;;;;10.62;100.00;95555.47;4074213;29;20649;-84
2024/02/11 03:33:46;;;;;;;2.20;1.03;;;;;;;10.57;100.00;95555.13;4060254;29;20728;-83
2024/02/11 03:35:50;;;;;;;3.93;0.93;;;;;;;10.44;100.00;95554.84;4079344;29;20712;-83
2024/02/11 03:37:54;;;;;;;1.70;0.80;;;;;;;10.29;100.00;95558.31;4074429;29;21010;-83
2024/02/11 03:39:57;;;;;;;1.40;0.57;;;;;;;10.23;100.00;95553.75;4059004;29;21245;-83
2024/02/11 03:42:02;;;;;;;1.30;0.50;;;;;;;10.14;100.00;95568.56;4063240;29;20666;-83
2024/02/11 03:44:06;;;;;;;1.60;0.50;;;;;;;10.09;100.00;95583.88;4092691;28;20644;-83
2024/02/11 03:46:11;;;;;;;1.20;0.40;;;;;;;10.02;100.00;95569.84;4077298;29;20643;-83
2024/02/11 03:48:15;;;;;;;1.20;0.47;;;;;;;9.92;100.00;95584.81;4061178;29;20241;-83
2024/02/11 03:50:19;;;;;;;1.97;0.50;;;;;;;9.89;100.00;95579.94;4075719;29;20996;-83
2024/02/11 03:52:23;;;;;;;1.30;0.40;;;;;;;9.84;100.00;95591.78;4063270;29;20691;-83
2024/02/11 03:54:28;;;;;;;1.43;0.50;;;;;;;9.83;100.00;95584.94;4062683;29;20703;-83
2024/02/11 03:56:35;;;;;;;1.47;0.60;;;;;;;9.79;100.00;95606.25;4063181;29;20632;-84
2024/02/11 03:58:41;;;;;;;1.13;0.37;;;;;;;9.77;100.00;95606.41;4076798;29;20630;-82
2024/02/11 04:00:48;;;;;;;1.20;0.50;;;;;;;9.75;100.00;95603.16;4074475;29;21225;-83
2024/02/11 04:02:53;;;;;;;1.10;0.40;;;;;;;9.77;100.00;95616.03;4066397;29;20638;-83
2024/02/11 04:04:57;;;;;;;2.07;0.50;;;;;;;9.75;100.00;95628.38;4064223;29;20642;-83
2024/02/11 04:07:01;;;;;;;2.00;0.77;;;;;;;9.70;100.00;95622.84;4075571;29;21066;-83
2024/02/11 04:09:08;;;;;;;1.75;0.65;;;;;;;9.72;100.00;95628.72;4078025;29;20634;-83
2024/02/11 04:11:12;;;;;;;1.57;0.60;;;;;;;9.73;100.00;95632.94;4078328;29;20207;-83
2024/02/11 04:13:23;;;;;;;1.27;0.50;;;;;;;9.73;100.00;95638.16;4061186;29;21212;-83
2024/02/11 04:15:28;;;;;;;1.20;0.60;;;;;;;9.72;100.00;95631.31;4080109;29;20249;-84
2024/02/11 04:17:36;;;;;;;1.90;0.70;;;;;;;9.70;100.00;95636.69;4068016;29;20684;-83
2024/02/11 04:19:44;;;;;;;1.67;0.77;;;;;;;9.69;100.00;95636.84;4060469;29;20642;-82
2024/02/11 04:21:48;;;;;;;1.73;0.70;;;;;;;9.65;100.00;95640.72;4078624;29;21229;-83
2024/02/11 04:23:52;;;;;;;1.70;0.73;;;;;;;9.58;100.00;95637.94;4076747;29;20639;-83
2024/02/11 04:25:56;;;;;;;1.90;1.00;;;;;;;9.54;100.00;95643.63;4056605;29;20703;-83
2024/02/11 04:27:59;;;;;;;1.52;0.80;;;;;;;9.52;100.00;95648.19;4062209;29;20792;-83
2024/02/11 04:30:05;;;;;;;1.30;0.60;;;;;;;9.48;100.00;95641.66;4058098;29;20224;-83
2024/02/11 04:32:11;;;;;;;1.63;1.00;;;;;;;9.49;100.00;95651.91;4086867;28;20751;-83
2024/02/11 04:34:17;;;;;;;1.50;0.85;;;;;;;9.46;100.00;95647.00;4076220;29;20710;-83
2024/02/11 04:36:24;;;;;;;1.53;0.80;;;;;;;9.46;100.00;95654.81;4072016;29;20206;-83
2024/02/11 04:38:29;;;;;;;1.50;0.90;;;;;;;9.46;100.00;95660.03;4066147;29;20622;-83
2024/02/11 04:40:33;;;;;;;3.08;1.10;;;;;;;9.48;100.00;95667.66;4081153;29;20628;-83
2024/02/11 04:42:42;;;;;;;1.80;1.10;;;;;;;9.49;100.00;95659.69;4073207;29;20221;-83
2024/02/11 04:44:47;;;;;;;2.17;1.15;;;;;;;9.49;100.00;95658.91;4079765;29;20689;-83
2024/02/11 04:46:51;;;;;;;2.17;1.25;;;;;;;9.43;100.00;95655.13;4077096;29;20239;-84
2024/02/11 04:48:56;;;;;;;2.10;1.13;;;;;;;9.44;100.00;95676.75;4080924;29;20747;-82
2024/02/11 04:51:00;;;;;;;2.03;1.20;;;;;;;9.40;100.00;95670.25;4076548;29;20225;-84
2024/02/11 04:53:08;;;;;;;1.63;1.00;;;;;;;9.42;100.00;95674.28;4081919;29;20703;-83
2024/02/11 04:55:13;;;;;;;5.18;2.65;;;;;;;9.35;100.00;95677.72;4072857;29;20257;-83
2024/02/11 04:57:18;;;;;;;4.85;1.80;;;;;;;9.33;100.00;95679.63;4063876;29;20278;-84
2024/02/11 04:59:23;;;;;;;2.75;1.40;;;;;;;9.33;100.00;95681.44;4078855;29;20214;-83
2024/02/11 05:01:28;;;;;;;2.80;1.60;;;;;;;9.31;100.00;95683.38;4063494;29;20203;-83
2024/02/11 05:03:31;;;;;;;3.22;1.75;;;;;;;9.31;100.00;95684.19;4064814;29;20205;-83
2024/02/11 05:05:37;;;;;;;3.70;1.77;;;;;;;9.30;100.00;95689.53;4080745;29;20578;-84
2024/02/11 05:07:43;;;;;;;1.90;1.23;;;;;;;9.29;100.00;95690.50;4084306;28;20324;-84
2024/02/11 05:09:49;;;;;;;2.70;1.70;;;;;;;9.23;100.00;95691.97;4079286;29;20623;-84
2024/02/11 05:11:54;;;;;;;2.20;1.40;;;;;;;9.25;100.00;95690.00;4078352;29;20242;-83
2024/02/11 05:13:58;;;;;;;1.90;1.30;;;;;;;9.26;100.00;95691.66;4063906;29;20200;-84
2024/02/11 05:16:05;;;;;;;5.25;1.90;;;;;;;9.24;100.00;95696.16;4066384;29;20266;-84
2024/02/11 05:18:12;;;;;;;2.83;1.80;;;;;;;9.26;100.00;95688.22;4062258;29;20298;-83
2024/02/11 05:20:23;;;;;;;2.58;1.92;;;;;;;9.29;100.00;95698.31;4067334;29;21274;-84
2024/02/11 05:22:30;;;;;;;2.72;1.55;;;;;;;9.25;100.00;95702.22;4065713;29;20772;-83
2024/02/11 05:24:36;;;;;;;2.20;1.55;;;;;;;9.26;100.00;95696.84;4087642;28;20666;-83
2024/02/11 05:26:41;;;;;;;3.15;1.60;;;;;;;9.28;100.00;95702.69;4066625;29;20222;-83
2024/02/11 05:28:46;;;;;;;3.55;1.85;;;;;;;9.29;100.00;95704.34;4062620;29;20231;-83
2024/02/11 05:30:52;;;;;;;3.13;1.80;;;;;;;9.30;100.00;95705.16;4064181;29;20315;-84
2024/02/11 05:32:57;;;;;;;3.38;1.70;;;;;;;9.27;100.00;95702.84;4079696;29;20687;-83
2024/02/11 05:35:01;;;;;;;2.95;2.00;;;;;;;9.19;100.00;95708.84;4073665;29;20206;-83
2024/02/11 05:37:07;;;;;;;2.97;1.70;;;;;;;9.23;100.00;95706.72;4074463;29;20244;-83
2024/02/11 05:39:12;;;;;;;2.67;1.50;;;;;;;9.23;100.00;95711.94;4061216;29;20334;-83
2024/02/11 05:41:16;;;;;;;4.03;1.80;;;;;;;9.25;100.00;95723.00;4061940;29;20642;-83
2024/02/11 05:43:23;;;;;;;5.00;1.73;;;;;;;9.24;100.00;95713.56;4075179;29;20615;-84
2024/02/11 05:45:28;;;;;;;4.45;1.88;;;;;;;9.24;100.00;95714.38;4065743;29;20634;-83
2024/02/11 05:47:34;;;;;;;3.17;1.60;;;;;;;9.24;100.00;95722.19;4075084;29;20214;-83
2024/02/11 05:49:37;;;;;;;3.45;1.50;;;;;;;9.26;100.00;95722.84;4074204;29;20219;-83
2024/02/11 05:51:41;;;;;;;3.00;1.77;;;;;;;9.29;100.00;95725.16;4063012;29;20723;-83
2024/02/11 05:53:45;;;;;;;2.50;1.90;;;;;;;9.30;100.00;95731.97;4062466;29;20202;-83
2024/02/11 05:55:49;;;;;;;3.17;1.67;;;;;;;9.30;100.00;95734.56;4061221;29;20217;-83
2024/02/11 05:57:53;;;;;;;2.90;1.63;;;;;;;9.28;100.00;95739.13;4077676;29;20210;-83
2024/02/11 05:59:59;;;;;;;3.17;1.80;;;;;;;9.28;100.00;95736.50;4064547;29;20747;-83
2024/02/11 06:02:03;;;;;;;2.30;1.55;;;;;;;9.30;100.00;95741.56;4078276;29;20697;-83
2024/02/11 06:04:06;;;;;;;2.80;1.50;;;;;;;9.32;100.00;95742.22;4078435;29;20302;-84
2024/02/11 06:06:09;;;;;;;2.72;1.58;;;;;;;9.30;100.00;95751.97;4063137;29;21125;-84
2024/02/11 06:08:15;;;;;;;2.85;1.60;;;;;;;9.31;100.00;95749.22;4061768;29;20241;-84
2024/02/11 06:10:20;;;;;;;4.38;1.80;;;;;;;9.33;100.00;95756.84;4066617;29;20226;-84
2024/02/11 06:12:23;;;;;;;2.83;1.70;;;;;;;9.33;100.00;95751.66;4077182;29;20362;-84
2024/02/11 06:14:27;;;;;;;2.88;1.80;;;;;;;9.33;100.00;95760.25;4079912;29;20294;-84
2024/02/11 06:16:33;;;;;;;2.70;1.60;;;;;;;9.32;100.00;95760.41;4075353;29;20210;-83
2024/02/11 06:18:37;;;;;;;2.47;1.48;;;;;;;9.33;100.00;95759.47;4072607;29;20194;-83
2024/02/11 06:20:40;;;;;;;2.43;1.60;;;;;;;9.32;100.00;95763.84;4064767;29;20357;-84
2024/02/11 06:22:43;;;;;;;2.20;1.40;;;;;;;9.35;100.00;95765.31;4068119;29;20637;-84
2024/02/11 06:24:47;;;;;;;2.90;1.67;;;;;;;9.37;100.00;95771.16;4080551;29;20222;-83
2024/02/11 06:26:50;;;;;;;2.60;1.67;;;;;;;9.37;100.00;95773.75;4076518;29;20218;-83
2024/02/11 06:28:54;;;;;;;3.15;1.80;;;;;;;9.39;100.00;95777.84;4062410;29;20231;-83
2024/02/11 06:30:57;;;;;;;2.95;1.63;;;;;;;9.40;100.00;95779.50;4071122;29;20899;-83
2024/02/11 06:33:02;;;;;;;2.70;1.77;;;;;;;9.40;100.00;95785.50;4077319;29;20659;-83
2024/02/11 06:35:06;;;;;;;2.72;1.48;;;;;;;9.40;100.00;95793.31;4059396;29;20258;-83
2024/02/11 06:37:10;;;;;;;4.75;1.70;;;;;;;9.40;100.00;95789.91;4082065;29;20231;-83
2024/02/11 06:39:14;;;;;;;2.35;1.35;;;;;;;9.40;100.00;95798.50;4087194;28;20292;-83
2024/02/11 06:41:21;;;;;;;2.00;1.10;;;;;;;9.41;100.00;95796.72;4090691;28;20268;-83
2024/02/11 06:43:27;;;;;;;3.55;1.42;;;;;;;9.43;100.00;95800.81;4078863;29;20202;-84
2024/02/11 06:45:31;;;;;;;1.92;1.20;;;;;;;9.42;100.00;95795.75;4077499;29;20211;-83
2024/02/11 06:47:35;;;;;;;1.65;0.80;;;;;;;9.39;100.00;95796.88;4090455;28;20210;-84
2024/02/11 06:49:40;;;;;;;1.88;0.82;;;;;;;9.41;100.00;95796.72;4063813;29;20233;-83
2024/02/11 06:51:44;;;;;;;1.40;0.50;;;;;;;9.39;100.00;95799.47;4076968;29;20263;-83
2024/02/11 06:53:47;;;;;;;1.50;0.77;;;;;;;9.35;100.00;95804.31;4061702;29;20655;-83
2024/02/11 06:55:51;;;;;;;1.85;0.75;;;;;;;9.27;100.00;95804.28;4061411;29;20226;-83
2024/02/11 06:57:55;;;;;;;1.63;0.70;;;;;;;9.22;100.00;95807.34;4059610;29;20218;-84
2024/02/11 07:00:00;;;;;;;1.67;0.80;;;;;;;9.08;100.00;95812.25;4089280;28;20266;-83
2024/02/11 07:02:04;;;;;;;1.25;0.57;;;;;;;9.01;100.00;95816.44;4061334;29;20631;-83
2024/02/11 07:04:08;;;;;;;1.50;0.60;;;;;;;8.95;100.00;95814.44;4060073;29;20203;-83
2024/02/11 07:06:13;;;;;;;1.40;0.70;;;;;;;8.92;100.00;95820.75;4075147;29;20692;-83
2024/02/11 07:08:18;;;;;;;1.40;0.75;;;;;;;8.96;100.00;95818.69;4063472;29;20316;-84
2024/02/11 07:10:21;;;;;;;1.20;0.60;;;;;;;8.88;100.00;95817.78;4079521;29;20230;-83
2024/02/11 07:12:24;;;;;;;2.10;0.90;;;;;;;8.80;100.00;95820.34;4070783;29;20213;-84
2024/02/11 07:14:27;;;;;;;1.70;1.10;;;;;;;8.71;100.00;95826.44;4074377;29;20895;-84
2024/02/11 07:16:29;;;;;;;2.80;1.33;;;;;;;8.66;100.00;95821.69;4062046;29;20207;-83
2024/02/11 07:18:33;;;;;;;2.20;1.20;;;;;;;8.57;100.00;95830.38;4090487;28;20775;-83
2024/02/11 07:20:36;;;;;;;2.03;1.00;;;;;;;8.54;100.00;95829.84;4060075;29;20230;-83
2024/02/11 07:22:43;;;;;;;1.42;0.80;;;;;;;8.56;100.00;95838.31;4061585;29;20246;-83
2024/02/11 07:24:47;;;;;;;3.67;0.80;;;;;;;8.50;100.00;95841.47;4077983;29;20216;-83
2024/02/11 07:26:51;;;;;;;1.63;0.80;;;;;;;8.44;100.00;95843.88;4075722;29;20197;-83
2024/02/11 07:28:54;;;;;;;1.75;0.82;;;;;;;8.46;100.00;95853.13;4089293;28;20723;-83
2024/02/11 07:30:59;;;;;;;1.83;1.05;;;;;;;8.41;100.00;95844.97;4058340;29;20207;-83
2024/02/11 07:33:01;;;;;;;1.60;0.90;;;;;;;8.41;100.00;95860.53;4075110;29;20209;-83
2024/02/11 07:35:07;;;;;;;1.60;0.90;;;;;;;8.39;100.00;95857.28;4074933;29;20249;-83
2024/02/11 07:37:10;;;;;;;1.50;1.00;;;;;;;8.48;100.00;95859.81;4059759;29;20215;-83
2024/02/11 07:39:16;;;;;;;1.60;0.90;;;;;;;8.56;100.00;95866.88;4073883;29;20964;-83
2024/02/11 07:41:19;;;;;;;3.05;1.30;;;;;;;8.61;100.00;95872.44;4060498;29;20214;-83
2024/02/11 07:43:25;;;;;;;1.98;1.13;;;;;;;8.62;100.00;95874.09;4064098;29;20716;-84
2024/02/11 07:45:28;;;;;;;1.67;1.00;;;;;;;8.60;100.00;95871.63;4052530;29;20258;-84
2024/02/11 07:47:33;;;;;;;2.30;1.40;;;;;;;8.61;100.00;95873.25;4054470;29;20710;-84
2024/02/11 07:49:36;;;;;;;2.25;1.40;;;;;;;8.64;100.00;95872.13;4067972;29;20237;-83
2024/02/11 07:51:44;;;;;;;2.42;1.63;;;;;;;8.70;100.00;95879.34;4060661;29;20222;-83
2024/02/11 07:53:49;;;;;;;2.45;1.30;;;;;;;8.66;100.00;95878.00;4081408;28;20497;-83
2024/02/11 07:55:54;;;;;;;3.20;1.60;;;;;;;8.66;100.00;95891.81;4075114;29;20201;-84
2024/02/11 07:57:57;;;;;;;2.75;1.50;;;;;;;8.58;100.00;95886.53;4073867;29;20212;-84
2024/02/11 08:00:01;;;;;;;2.47;1.40;;;;;;;8.60;100.00;95886.38;4059761;29;20211;-83
2024/02/11 08:02:07;;;;;;;3.05;1.70;;;;;;;8.63;100.00;95896.47;4075046;29;20241;-83
2024/02/11 08:04:11;;;;;;;3.55;1.77;;;;;;;8.62;100.00;95892.25;4062640;29;20236;-83
2024/02/11 08:06:15;;;;;;;1.95;1.33;;;;;;;8.61;100.00;95893.22;4061312;29;20233;-88
2024/02/11 08:08:18;;;;;;;2.65;1.58;;;;;;;8.66;100.00;95901.38;4076282;29;20210;-87
2024/02/11 08:10:22;;;;;;;2.75;1.80;;;;;;;8.72;100.00;95900.78;4055472;29;20653;-86
2024/02/11 08:12:27;;;;;;;3.47;1.88;;;;;;;8.75;100.00;95901.34;4079504;29;20207;-87
2024/02/11 08:14:31;;;;;;;3.03;1.55;;;;;;;8.76;100.00;95908.16;4095661;28;20220;-87
2024/02/11 08:16:35;;;;;;;3.05;1.70;;;;;;;8.77;100.00;95903.78;4077110;29;20304;-88
2024/02/11 08:18:38;;;;;;;2.70;1.55;;;;;;;8.77;100.00;95899.41;4071899;29;20223;-87
2024/02/11 08:20:43;;;;;;;3.03;1.67;;;;;;;8.82;100.00;95909.34;4069027;29;20209;-87
2024/02/11 08:22:47;;;;;;;2.00;1.40;;;;;;;8.88;100.00;95908.75;4075933;29;20210;-87
2024/02/11 08:24:50;;;;;;;2.60;1.85;;;;;;;8.88;100.00;95909.56;4073500;29;20275;-87
2024/02/11 08:26:53;;;;;;;2.67;1.80;;;;;;;8.89;100.00;95907.81;4054366;29;20203;-88
2024/02/11 08:29:01;;;;;;;2.88;1.80;;;;;;;8.90;100.00;95910.25;4058834;29;20215;-88
2024/02/11 08:31:05;;;;;;;2.30;1.30;;;;;;;8.90;100.00;95914.63;4075085;29;20223;-89
2024/02/11 08:33:09;;;;;;;2.03;1.30;;;;;;;8.93;100.00;95915.16;4075293;29;20281;-89
2024/02/11 08:35:13;;;;;;;3.70;1.83;;;;;;;8.95;100.00;95916.63;4062218;29;20589;-88
2024/02/11 08:37:16;;;;;;;2.90;1.80;;;;;;;8.95;100.00;95918.41;4078802;29;20265;-88
2024/02/11 08:39:25;;;;;;;3.55;2.10;;;;;;;8.93;100.00;95909.97;4074313;29;20212;-88
2024/02/11 08:41:29;;;;;;;4.93;2.13;;;;;;;8.95;100.00;95924.44;4060487;29;20701;-86
2024/02/11 08:43:33;;;;;;;3.22;2.17;;;;;;;8.96;100.00;95918.28;4078447;29;20203;-86
2024/02/11 08:45:37;;;;;;;3.00;1.98;;;;;;;9.00;100.00;95927.38;4084601;28;20247;-86
2024/02/11 08:47:41;;;;;;;3.00;1.77;;;;;;;9.04;100.00;95926.13;4077731;29;20614;-87
2024/02/11 08:49:48;;;;;;;3.83;2.22;;;;;;;9.02;100.00;95930.69;4060379;29;20261;-86
2024/02/11 08:51:52;;;;;;;3.47;2.50;;;;;;;9.06;100.00;95933.78;4074207;29;20210;-87
2024/02/11 08:53:56;;;;;;;3.47;1.95;;;;;;;9.11;100.00;95941.94;4060698;29;20207;-88
2024/02/11 08:55:59;;;;;;;3.30;2.30;;;;;;;9.14;100.00;95937.28;4053224;29;20214;-88
2024/02/11 08:58:04;;;;;;;2.85;2.20;;;;;;;9.18;100.00;95933.41;4071606;29;20214;-87
2024/02/11 09:00:14;;;;;;;3.38;2.53;;;;;;;9.27;100.00;95942.13;4095255;28;20201;-87
2024/02/11 09:02:19;;;;;;;4.20;2.35;;;;;;;9.33;100.00;95944.94;4078051;29;20261;-87
2024/02/11 09:04:23;;;;;;;3.58;2.60;;;;;;;9.42;100.00;95951.84;4076436;29;20262;-86
2024/02/11 09:06:28;;;;;;;5.68;3.05;;;;;;;9.48;100.00;95949.44;4075340;29;20249;-87
2024/02/11 09:08:32;;;;;;;5.40;3.47;;;;;;;9.53;100.00;95949.81;4076114;29;20206;-87
2024/02/11 09:10:35;;;;;;;4.75;3.10;;;;;;;9.54;100.00;95958.44;4060974;29;20320;-88
2024/02/11 09:12:38;;;;;;;4.68;3.10;;;;;;;9.52;100.00;95949.97;4063023;29;20217;-88
2024/02/11 09:14:42;;;;;;;5.88;3.47;;;;;;;9.54;100.00;95953.22;4062043;29;20214;-87
2024/02/11 09:16:44;;;;;;;4.90;3.20;;;;;;;9.55;100.00;95954.88;4076397;29;20742;-88
2024/02/11 09:18:50;;;;;;;5.23;3.50;;;;;;;9.56;100.00;95959.09;4078229;29;20648;-88
2024/02/11 09:20:53;;;;;;;5.25;3.67;;;;;;;9.61;100.00;95964.69;4061685;29;20638;-87
2024/02/11 09:22:56;;;;;;;7.77;4.10;;;;;;;9.62;100.00;95961.09;4075205;29;20234;-86
2024/02/11 09:25:00;;;;;;;10.37;4.50;;;;;;;9.65;100.00;95971.19;4063939;29;21054;-86
2024/02/11 09:27:03;;;;;;;7.63;4.15;;;;;;;9.64;100.00;95964.38;4067973;29;20726;-87
2024/02/11 09:29:07;;;;;;;6.95;3.80;;;;;;;9.58;100.00;95970.19;4076320;29;20672;-86
2024/02/11 09:31:11;;;;;;;6.93;3.90;;;;;;;9.53;100.00;95967.19;4084621;29;20234;-85
2024/02/11 09:33:14;;;;;;;7.65;3.95;;;;;;;9.52;100.00;95965.59;4057130;29;20211;-87
2024/02/11 09:35:21;;;;;;;5.50;3.80;;;;;;;9.50;100.00;95973.53;4071534;29;20308;-86
2024/02/11 09:37:26;;;;;;;8.63;4.03;;;;;;;9.44;100.00;95974.13;4084988;29;20621;-87